Time;durP1;ratioP1;P1;durP2;ratioP2;P2;SDS_P1;SDS_P2;PMS_P1;PMS_P2;Temp;Humidity;BMP_temperature;BMP_pressure;BME280_temperature;BME280_humidity;BME280_pressure;Samples;Min_cycle;Max_cycle;Signal;HPM_P1;HPM_P2
2023/07/16 00:01:32;;;;;;;3.42;0.77;;;14.40;99.90;;;;;;5051014;28;20052;-55
2023/07/16 00:04:01;;;;;;;8.52;1.33;;;;;;;;;;5050177;28;20416;-61
2023/07/16 00:06:28;;;;;;;5.18;1.55;;;14.40;99.90;;;;;;5052750;28;20052;-55
2023/07/16 00:08:56;;;;;;;6.03;0.93;;;14.40;99.90;;;;;;5045931;28;20511;-56
2023/07/16 00:11:24;;;;;;;6.53;1.40;;;14.40;99.90;;;;;;5049377;28;20041;-60
2023/07/16 00:13:52;;;;;;;3.08;0.90;;;14.40;99.90;;;;;;5050612;28;20048;-55
2023/07/16 00:16:21;;;;;;;10.07;1.50;;;14.40;99.90;;;;;;5049497;28;20051;-54
2023/07/16 00:18:48;;;;;;;3.50;0.90;;;14.30;99.90;;;;;;5046290;28;20044;-54
2023/07/16 00:21:16;;;;;;;9.75;1.27;;;14.40;99.90;;;;;;5047449;28;20049;-60
2023/07/16 00:23:44;;;;;;;7.50;1.27;;;14.30;99.90;;;;;;5050164;28;20052;-55
2023/07/16 00:26:13;;;;;;;8.63;1.73;;;14.40;99.90;;;;;;5050366;28;20053;-54
2023/07/16 00:28:41;;;;;;;4.68;0.95;;;14.40;99.90;;;;;;5055069;28;20044;-58
2023/07/16 00:31:10;;;;;;;4.78;1.48;;;14.40;99.90;;;;;;5045916;28;20078;-55
2023/07/16 00:33:37;;;;;;;6.10;0.80;;;14.30;99.90;;;;;;5034467;28;20043;-63
2023/07/16 00:36:05;;;;;;;4.15;1.05;;;14.40;99.90;;;;;;5050890;28;20045;-60
2023/07/16 00:38:33;;;;;;;5.30;1.10;;;14.40;99.90;;;;;;5050429;28;20045;-62
2023/07/16 00:41:00;;;;;;;5.63;1.23;;;14.40;99.90;;;;;;5050094;28;20045;-62
2023/07/16 00:43:28;;;;;;;8.00;1.27;;;14.40;99.90;;;;;;5044828;28;20060;-55
2023/07/16 00:45:56;;;;;;;6.45;1.23;;;14.40;99.90;;;;;;5048595;28;20036;-55
2023/07/16 00:48:25;;;;;;;5.63;0.88;;;14.40;99.90;;;;;;5027364;28;20484;-55
2023/07/16 00:50:54;;;;;;;6.70;1.00;;;14.30;99.90;;;;;;5046558;28;20053;-55
2023/07/16 00:53:22;;;;;;;6.45;1.05;;;14.40;99.90;;;;;;5049718;28;20052;-57
2023/07/16 00:55:51;;;;;;;4.45;1.30;;;14.40;99.90;;;;;;5045145;28;20049;-55
2023/07/16 00:58:19;;;;;;;3.43;0.70;;;14.30;99.90;;;;;;5049265;28;20047;-54
2023/07/16 01:00:47;;;;;;;9.13;1.00;;;14.30;99.90;;;;;;5044994;28;20041;-55
2023/07/16 01:03:18;;;;;;;6.95;1.10;;;14.30;99.90;;;;;;5044267;28;20029;-55
2023/07/16 01:06:05;;;;;;;3.38;0.98;;;14.30;99.90;;;;;;5045064;28;20415;-57
2023/07/16 01:08:41;;;;;;;6.63;1.17;;;14.30;99.90;;;;;;5043572;28;20523;-55
2023/07/16 01:11:10;;;;;;;7.32;1.10;;;14.30;99.90;;;;;;5047238;28;20505;-54
2023/07/16 01:13:39;;;;;;;5.72;0.90;;;14.30;99.90;;;;;;5049649;28;20056;-56
2023/07/16 01:16:25;;;;;;;5.55;1.50;;;14.30;99.90;;;;;;5043305;28;20396;-54
2023/07/16 01:18:53;;;;;;;7.57;1.73;;;14.30;99.90;;;;;;5047974;28;20511;-55
2023/07/16 01:21:23;;;;;;;5.93;1.13;;;14.30;99.90;;;;;;5048761;28;20431;-58
2023/07/16 01:23:53;;;;;;;5.63;1.30;;;14.30;99.90;;;;;;5045928;28;20644;-55
2023/07/16 01:27:06;;;;;;;4.07;0.80;;;14.30;99.90;;;;;;5048213;28;20057;-55
2023/07/16 01:29:46;;;;;;;6.15;0.98;;;14.30;99.90;;;;;;5041019;28;20392;-55
2023/07/16 01:32:15;;;;;;;6.78;1.05;;;14.30;99.90;;;;;;5043105;28;20056;-55
2023/07/16 01:34:43;;;;;;;10.50;1.10;;;14.30;99.90;;;;;;5031495;28;20056;-56
2023/07/16 01:37:11;;;;;;;6.40;0.93;;;14.30;99.90;;;;;;5052834;28;20496;-55
2023/07/16 01:39:39;;;;;;;5.60;1.38;;;14.20;99.90;;;;;;5058150;28;20374;-56
2023/07/16 01:42:07;;;;;;;9.52;1.33;;;14.20;99.90;;;;;;5052316;28;20408;-55
2023/07/16 01:44:35;;;;;;;7.18;0.93;;;14.10;99.90;;;;;;5049445;28;20064;-55
2023/07/16 01:47:09;;;;;;;8.35;1.30;;;14.10;99.90;;;;;;5047218;28;20512;-55
2023/07/16 01:49:38;;;;;;;5.07;1.25;;;14.10;99.90;;;;;;5047578;28;20041;-55
2023/07/16 01:52:08;;;;;;;3.78;0.88;;;14.10;99.90;;;;;;5045195;28;20049;-56
2023/07/16 01:54:37;;;;;;;6.63;1.65;;;14.10;99.90;;;;;;5049166;28;20053;-54
2023/07/16 01:57:04;;;;;;;10.48;1.20;;;14.10;99.90;;;;;;5024324;28;20045;-55
2023/07/16 01:59:32;;;;;;;10.45;1.27;;;14.10;99.90;;;;;;5028509;28;20041;-56
2023/07/16 02:02:00;;;;;;;8.45;1.10;;;14.00;99.90;;;;;;5045289;28;20052;-56
2023/07/16 02:04:27;;;;;;;6.35;1.00;;;14.10;99.90;;;;;;5037565;28;20069;-56
2023/07/16 02:06:58;;;;;;;8.43;1.20;;;14.00;99.90;;;;;;5046691;28;20049;-55
2023/07/16 02:09:26;;;;;;;3.90;0.90;;;14.00;99.90;;;;;;5030904;28;20060;-55
2023/07/16 02:11:54;;;;;;;7.18;1.50;;;14.10;99.90;;;;;;5029835;28;20049;-60
2023/07/16 02:14:22;;;;;;;5.90;2.15;;;14.10;99.90;;;;;;5045566;28;20044;-61
2023/07/16 02:16:50;;;;;;;7.32;1.50;;;14.10;99.90;;;;;;5045065;28;20045;-59
2023/07/16 02:19:17;;;;;;;6.97;1.17;;;14.10;99.90;;;;;;5048096;28;20037;-56
2023/07/16 02:21:45;;;;;;;8.85;1.33;;;14.10;99.90;;;;;;5047036;28;20053;-56
2023/07/16 02:24:12;;;;;;;9.48;1.20;;;14.10;99.90;;;;;;5029296;28;20044;-56
2023/07/16 02:26:40;;;;;;;9.18;1.30;;;14.10;99.90;;;;;;5044106;28;20045;-55
2023/07/16 02:29:11;;;;;;;8.40;1.52;;;14.10;99.90;;;;;;5042325;28;20045;-55
2023/07/16 02:31:38;;;;;;;8.43;1.23;;;14.10;99.90;;;;;;5048519;28;20497;-55
2023/07/16 02:34:06;;;;;;;5.65;1.25;;;14.10;99.90;;;;;;5048332;28;20045;-55
2023/07/16 02:36:34;;;;;;;6.82;1.05;;;14.10;99.90;;;;;;5042541;28;20447;-55
2023/07/16 02:39:05;;;;;;;4.18;1.30;;;14.10;99.90;;;;;;5047746;28;20048;-58
2023/07/16 02:41:32;;;;;;;4.72;0.95;;;14.10;99.90;;;;;;5048928;28;20052;-55
2023/07/16 02:44:03;;;;;;;6.38;1.30;;;14.10;99.90;;;;;;5049471;28;20055;-59
2023/07/16 02:46:30;;;;;;;;;;;14.10;99.90;;;;;;5050683;28;20511;-61
2023/07/16 02:48:58;;;;;;;6.47;1.23;;;14.10;99.90;;;;;;5048917;28;19920;-55
2023/07/16 02:51:25;;;;;;;1.65;0.68;;;14.10;99.90;;;;;;5051357;28;20342;-56
2023/07/16 02:53:53;;;;;;;9.85;1.42;;;14.10;99.90;;;;;;5050123;28;20392;-55
2023/07/16 02:56:21;;;;;;;6.40;1.20;;;14.20;99.90;;;;;;5049637;28;20041;-56
2023/07/16 02:58:49;;;;;;;4.00;1.23;;;14.10;99.90;;;;;;5047799;28;20049;-55
2023/07/16 03:01:17;;;;;;;4.63;0.73;;;14.10;99.90;;;;;;5050062;28;20044;-57
2023/07/16 03:03:44;;;;;;;8.05;1.10;;;14.10;99.90;;;;;;5049983;28;20049;-55
2023/07/16 03:06:12;;;;;;;5.22;1.20;;;14.10;99.90;;;;;;5052864;28;20057;-55
2023/07/16 03:08:40;;;;;;;5.43;0.75;;;14.10;99.90;;;;;;5050038;28;20063;-55
2023/07/16 03:11:08;;;;;;;5.35;0.95;;;14.10;99.90;;;;;;5047277;28;20041;-55
2023/07/16 03:13:36;;;;;;;4.00;0.95;;;14.10;99.90;;;;;;5049696;28;20511;-55
2023/07/16 03:16:04;;;;;;;5.25;1.08;;;14.20;99.90;;;;;;5051018;28;20045;-54
2023/07/16 03:18:32;;;;;;;8.48;1.95;;;14.10;99.90;;;;;;5049754;28;20041;-58
2023/07/16 03:21:00;;;;;;;5.18;1.17;;;14.10;99.90;;;;;;5049118;28;20052;-57
2023/07/16 03:23:28;;;;;;;4.13;0.77;;;14.10;99.90;;;;;;5050964;28;20037;-56
2023/07/16 03:25:56;;;;;;;4.35;1.35;;;14.10;99.90;;;;;;5049309;28;20056;-55
2023/07/16 03:28:23;;;;;;;4.38;1.05;;;14.10;99.90;;;;;;5049267;28;20399;-55
2023/07/16 03:30:52;;;;;;;7.82;1.27;;;14.00;99.90;;;;;;5051019;28;20041;-55
2023/07/16 03:33:20;;;;;;;4.30;1.20;;;14.00;99.90;;;;;;5046682;28;20485;-56
2023/07/16 03:35:49;;;;;;;4.90;1.80;;;14.10;99.90;;;;;;5050510;28;20052;-55
2023/07/16 03:38:19;;;;;;;6.18;1.17;;;14.00;99.90;;;;;;5049789;28;20044;-56
2023/07/16 03:40:48;;;;;;;6.40;1.00;;;14.10;99.90;;;;;;5050386;28;20057;-55
2023/07/16 03:43:16;;;;;;;11.25;1.10;;;14.10;99.90;;;;;;5049628;28;20044;-61
2023/07/16 03:45:45;;;;;;;8.35;1.35;;;14.00;99.90;;;;;;5044629;28;20610;-55
2023/07/16 03:48:13;;;;;;;9.52;1.27;;;14.00;99.90;;;;;;5050687;28;20048;-56
2023/07/16 03:50:41;;;;;;;2.72;1.05;;;14.00;99.90;;;;;;5049721;28;20037;-56
2023/07/16 03:53:08;;;;;;;5.15;1.05;;;14.00;99.90;;;;;;5050782;28;20504;-55
2023/07/16 03:55:37;;;;;;;2.72;0.57;;;14.00;99.90;;;;;;5049191;28;20500;-55
2023/07/16 03:58:04;;;;;;;6.55;0.90;;;14.00;99.90;;;;;;5049622;28;20484;-55
2023/07/16 04:00:32;;;;;;;3.38;0.80;;;14.00;99.90;;;;;;5048878;28;20044;-57
2023/07/16 04:03:00;;;;;;;4.30;0.85;;;14.00;99.90;;;;;;5049300;28;20052;-55
2023/07/16 04:05:28;;;;;;;5.00;1.02;;;14.00;99.90;;;;;;5051582;28;20507;-56
2023/07/16 04:07:56;;;;;;;2.97;0.77;;;14.00;99.90;;;;;;5049520;28;20057;-56
2023/07/16 04:10:23;;;;;;;7.05;1.90;;;14.00;99.90;;;;;;5048171;28;20045;-56
2023/07/16 04:12:51;;;;;;;5.30;1.05;;;14.00;99.90;;;;;;5048998;28;20076;-56
2023/07/16 04:15:18;;;;;;;1.95;0.60;;;14.00;99.90;;;;;;5050587;28;20045;-64
2023/07/16 04:17:46;;;;;;;5.35;0.77;;;14.00;99.90;;;;;;5050157;28;20049;-61
2023/07/16 04:20:14;;;;;;;6.53;1.30;;;14.00;99.90;;;;;;5050448;28;20468;-61
2023/07/16 04:22:41;;;;;;;4.78;0.80;;;14.00;99.90;;;;;;5044077;28;20049;-59
2023/07/16 04:25:09;;;;;;;2.22;0.70;;;14.00;99.90;;;;;;5050210;28;20052;-63
2023/07/16 04:27:37;;;;;;;4.15;1.00;;;14.00;99.90;;;;;;5049875;28;20045;-64
2023/07/16 04:30:06;;;;;;;4.80;0.75;;;14.00;99.90;;;;;;5050402;28;20152;-61
2023/07/16 04:32:33;;;;;;;4.78;0.60;;;14.00;99.90;;;;;;5050303;28;20044;-63
2023/07/16 04:35:03;;;;;;;4.97;1.17;;;14.00;99.90;;;;;;5047969;28;20041;-61
2023/07/16 04:37:31;;;;;;;3.10;1.08;;;14.00;99.90;;;;;;5051274;28;20044;-62
2023/07/16 04:39:58;;;;;;;5.22;1.40;;;14.00;99.90;;;;;;5052745;28;20041;-63
2023/07/16 04:42:26;;;;;;;3.30;0.80;;;14.00;99.90;;;;;;5053647;28;20049;-56
2023/07/16 04:44:54;;;;;;;5.35;1.10;;;14.00;99.90;;;;;;5053776;28;20053;-56
2023/07/16 04:47:22;;;;;;;4.05;0.80;;;14.00;99.90;;;;;;5047745;28;20560;-62
2023/07/16 04:49:50;;;;;;;2.42;0.90;;;14.00;99.90;;;;;;5046889;28;20044;-61
2023/07/16 04:52:19;;;;;;;5.45;0.95;;;13.90;99.90;;;;;;5050230;28;20056;-57
2023/07/16 04:54:46;;;;;;;6.45;0.90;;;14.00;99.90;;;;;;5049066;28;20060;-56
2023/07/16 04:57:14;;;;;;;4.18;0.80;;;13.90;99.90;;;;;;5045411;28;20045;-61
2023/07/16 04:59:42;;;;;;;5.05;0.80;;;14.00;99.90;;;;;;5045290;28;20048;-58
2023/07/16 05:02:10;;;;;;;2.42;0.90;;;14.00;99.90;;;;;;5040976;28;20060;-55
2023/07/16 05:04:38;;;;;;;4.38;1.10;;;14.00;99.90;;;;;;5055531;28;20078;-57
2023/07/16 05:07:06;;;;;;;5.80;0.90;;;14.00;99.90;;;;;;5047609;28;20400;-58
2023/07/16 05:09:33;;;;;;;5.85;1.20;;;14.00;99.90;;;;;;5046877;28;20047;-57
2023/07/16 05:12:02;;;;;;;3.50;1.02;;;13.90;99.90;;;;;;5041441;28;20056;-55
2023/07/16 05:14:30;;;;;;;1.40;0.98;;;14.00;99.90;;;;;;5046140;28;20033;-56
2023/07/16 05:16:58;;;;;;;7.95;1.63;;;13.90;99.90;;;;;;5046546;28;20484;-55
2023/07/16 05:19:26;;;;;;;2.53;0.85;;;13.90;99.90;;;;;;5046639;28;20047;-55
2023/07/16 05:21:53;;;;;;;4.03;0.98;;;13.90;99.90;;;;;;5043489;28;20056;-56
2023/07/16 05:24:22;;;;;;;4.95;0.73;;;13.90;99.90;;;;;;5045228;28;20411;-56
2023/07/16 05:26:51;;;;;;;3.03;0.70;;;13.90;99.90;;;;;;5046543;28;20116;-56
2023/07/16 05:29:18;;;;;;;5.70;0.90;;;13.90;99.90;;;;;;5049513;28;20041;-55
2023/07/16 05:31:46;;;;;;;5.20;1.73;;;14.00;99.90;;;;;;5049248;28;20488;-58
2023/07/16 05:34:14;;;;;;;3.95;1.00;;;13.90;99.90;;;;;;5046404;28;20496;-55
2023/07/16 05:36:42;;;;;;;5.95;1.38;;;14.00;99.90;;;;;;5050599;28;20049;-56
2023/07/16 05:39:12;;;;;;;2.97;0.90;;;14.00;99.90;;;;;;5046661;28;20048;-56
2023/07/16 05:41:40;;;;;;;6.20;1.13;;;14.00;99.90;;;;;;5049038;28;20053;-56
2023/07/16 05:44:08;;;;;;;4.75;1.00;;;14.00;99.90;;;;;;5049095;28;20037;-55
2023/07/16 05:46:36;;;;;;;5.18;1.75;;;14.00;99.90;;;;;;5042742;28;20048;-55
2023/07/16 05:49:04;;;;;;;5.50;1.83;;;14.00;99.90;;;;;;5044423;28;20041;-55
2023/07/16 05:51:31;;;;;;;3.25;1.17;;;14.00;99.90;;;;;;5046133;28;20066;-55
2023/07/16 05:53:59;;;;;;;3.85;1.48;;;14.00;99.90;;;;;;5048115;28;20060;-55
2023/07/16 05:56:27;;;;;;;6.32;1.00;;;14.00;99.90;;;;;;5048301;28;20060;-56
2023/07/16 05:58:54;;;;;;;9.52;1.30;;;14.00;99.90;;;;;;5047726;28;20045;-56
2023/07/16 06:01:22;;;;;;;4.50;1.10;;;14.00;99.90;;;;;;5048683;28;20052;-56
2023/07/16 06:03:49;;;;;;;6.03;1.25;;;14.00;99.90;;;;;;5047674;28;20049;-55
2023/07/16 06:06:17;;;;;;;8.23;2.05;;;14.00;99.90;;;;;;5049373;28;20060;-55
2023/07/16 06:08:46;;;;;;;6.57;1.20;;;14.10;99.90;;;;;;5048887;28;20055;-56
2023/07/16 06:11:14;;;;;;;10.20;1.45;;;14.10;99.90;;;;;;5040712;28;20553;-55
2023/07/16 06:13:42;;;;;;;7.50;1.35;;;14.10;99.90;;;;;;5040357;28;20064;-55
2023/07/16 06:16:10;;;;;;;5.78;1.02;;;14.10;99.90;;;;;;5044195;28;20053;-54
2023/07/16 06:18:38;;;;;;;8.50;1.33;;;14.10;99.90;;;;;;5046613;28;20051;-59
2023/07/16 06:21:05;;;;;;;7.88;1.63;;;14.10;99.90;;;;;;5046449;28;20060;-55
2023/07/16 06:23:33;;;;;;;10.00;1.80;;;14.10;99.90;;;;;;5041947;28;20228;-55
2023/07/16 06:26:02;;;;;;;13.07;2.15;;;14.20;99.90;;;;;;5044596;28;20488;-55
2023/07/16 06:28:30;;;;;;;8.43;1.27;;;14.20;99.90;;;;;;5048986;28;20055;-55
2023/07/16 06:30:57;;;;;;;8.35;1.20;;;14.20;99.90;;;;;;5044705;28;20052;-55
2023/07/16 06:33:27;;;;;;;14.07;1.70;;;14.20;99.90;;;;;;5046132;28;20050;-55
2023/07/16 06:35:54;;;;;;;5.15;1.42;;;14.20;99.90;;;;;;5046674;28;20628;-62
2023/07/16 06:38:22;;;;;;;6.47;1.70;;;14.30;99.90;;;;;;5050770;28;20392;-58
2023/07/16 06:40:51;;;;;;;6.55;1.30;;;14.40;99.90;;;;;;5046911;28;20044;-58
2023/07/16 06:43:18;;;;;;;5.93;1.30;;;14.50;99.90;;;;;;5046617;28;20424;-62
2023/07/16 06:45:48;;;;;;;6.18;1.50;;;14.50;99.90;;;;;;5042618;28;20045;-60
2023/07/16 06:48:17;;;;;;;7.35;1.50;;;14.60;99.90;;;;;;5042384;28;20061;-62
2023/07/16 06:50:45;;;;;;;7.35;1.50;;;14.60;99.90;;;;;;5044878;28;20045;-62
2023/07/16 06:53:12;;;;;;;11.63;1.38;;;14.60;99.90;;;;;;5043782;28;20041;-64
2023/07/16 06:55:40;;;;;;;10.63;1.30;;;14.80;99.90;;;;;;5045933;28;20052;-62
2023/07/16 06:58:13;;;;;;;8.48;1.42;;;14.70;99.90;;;;;;5045771;28;20037;-65
2023/07/16 07:00:41;;;;;;;5.40;1.10;;;14.80;99.90;;;;;;5045077;28;20037;-63
2023/07/16 07:03:08;;;;;;;7.32;1.50;;;14.90;99.90;;;;;;5041293;28;20045;-63
2023/07/16 07:05:41;;;;;;;6.65;1.30;;;14.90;99.90;;;;;;5035832;28;20048;-63
2023/07/16 07:08:08;;;;;;;8.05;1.90;;;14.90;99.90;;;;;;5048531;28;20057;-59
2023/07/16 07:10:37;;;;;;;5.88;1.05;;;14.90;99.90;;;;;;5029128;28;20056;-60
2023/07/16 07:13:05;;;;;;;7.00;1.50;;;14.90;99.90;;;;;;5048062;28;20049;-56
2023/07/16 07:15:33;;;;;;;7.60;1.98;;;15.00;99.90;;;;;;5044019;28;20040;-57
2023/07/16 07:18:00;;;;;;;7.68;1.30;;;15.00;99.90;;;;;;5050755;28;20480;-54
2023/07/16 07:20:28;;;;;;;7.03;1.20;;;15.00;99.90;;;;;;5038555;28;20044;-59
2023/07/16 07:22:56;;;;;;;7.13;1.60;;;15.00;99.90;;;;;;5047603;28;20040;-57
2023/07/16 07:25:27;;;;;;;6.38;1.33;;;15.10;99.90;;;;;;5037210;28;20048;-55
2023/07/16 07:27:55;;;;;;;7.53;1.25;;;15.20;99.90;;;;;;5045541;28;20511;-56
2023/07/16 07:30:23;;;;;;;6.10;1.42;;;15.20;99.90;;;;;;5045428;28;20508;-55
2023/07/16 07:32:50;;;;;;;10.07;2.20;;;15.20;99.90;;;;;;5047095;28;20519;-55
2023/07/16 07:35:18;;;;;;;7.15;1.23;;;15.20;99.90;;;;;;5034275;28;20041;-55
2023/07/16 07:37:46;;;;;;;6.35;1.00;;;15.20;99.90;;;;;;5037384;28;20505;-55
2023/07/16 07:40:14;;;;;;;2.63;0.80;;;15.20;99.90;;;;;;5045979;28;20041;-55
2023/07/16 07:42:42;;;;;;;4.07;0.95;;;15.20;99.90;;;;;;5046740;28;20045;-55
2023/07/16 07:45:10;;;;;;;4.43;1.52;;;15.20;99.90;;;;;;5044674;28;20041;-54
2023/07/16 07:47:38;;;;;;;5.47;1.15;;;15.20;99.90;;;;;;5042198;28;20435;-55
2023/07/16 07:50:06;;;;;;;7.65;1.08;;;15.20;99.90;;;;;;5037447;28;20037;-54
2023/07/16 07:52:34;;;;;;;3.50;1.00;;;15.20;99.90;;;;;;5044939;28;20052;-54
2023/07/16 07:55:02;;;;;;;6.47;1.25;;;15.30;99.90;;;;;;5036089;28;20045;-55
2023/07/16 07:57:30;;;;;;;7.30;1.45;;;15.30;99.90;;;;;;5044976;28;20072;-55
2023/07/16 07:59:58;;;;;;;8.13;1.27;;;15.50;99.90;;;;;;5044725;28;20045;-55
2023/07/16 08:02:28;;;;;;;3.22;1.38;;;15.60;99.90;;;;;;5042166;28;20492;-55
2023/07/16 08:04:56;;;;;;;9.38;1.35;;;15.70;99.90;;;;;;5041669;28;20503;-55
2023/07/16 08:07:25;;;;;;;5.65;1.20;;;15.90;99.90;;;;;;5045835;28;20488;-56
2023/07/16 08:09:53;;;;;;;8.38;1.92;;;15.90;99.90;;;;;;5046936;28;20049;-54
2023/07/16 08:12:21;;;;;;;2.58;0.98;;;16.00;99.90;;;;;;5037239;28;20048;-55
2023/07/16 08:14:48;;;;;;;3.58;1.05;;;16.00;99.90;;;;;;5050553;28;20053;-55
2023/07/16 08:17:16;;;;;;;9.00;1.00;;;16.10;99.90;;;;;;5050615;28;20033;-54
2023/07/16 08:19:44;;;;;;;7.35;1.13;;;16.20;99.90;;;;;;5044885;28;20044;-55
2023/07/16 08:22:12;;;;;;;3.33;0.85;;;16.20;99.90;;;;;;5043369;28;20041;-55
2023/07/16 08:24:40;;;;;;;4.65;1.67;;;16.20;99.90;;;;;;5049418;28;20044;-56
2023/07/16 08:27:08;;;;;;;4.00;1.10;;;16.30;99.90;;;;;;5050409;28;20049;-54
2023/07/16 08:29:36;;;;;;;5.63;1.25;;;16.30;99.90;;;;;;5048706;28;20064;-55
2023/07/16 08:32:04;;;;;;;11.60;2.08;;;16.30;99.90;;;;;;5045975;28;20048;-54
2023/07/16 08:34:32;;;;;;;8.68;1.15;;;16.30;99.90;;;;;;5041589;28;20056;-55
2023/07/16 08:37:00;;;;;;;4.90;0.90;;;16.20;99.90;;;;;;5043333;28;20057;-54
2023/07/16 08:39:28;;;;;;;6.28;1.73;;;16.20;99.90;;;;;;5050276;28;20071;-54
2023/07/16 08:41:56;;;;;;;2.92;0.90;;;16.10;99.90;;;;;;5050228;28;20409;-55
2023/07/16 08:44:24;;;;;;;6.00;1.02;;;16.10;99.90;;;;;;5046847;28;20056;-56
2023/07/16 08:46:52;;;;;;;3.20;0.90;;;16.20;99.90;;;;;;5045533;28;20045;-55
2023/07/16 08:49:22;;;;;;;5.13;1.15;;;16.20;99.90;;;;;;5044726;28;20049;-54
2023/07/16 08:51:51;;;;;;;7.18;1.40;;;16.20;99.90;;;;;;5040705;28;20045;-55
2023/07/16 08:54:19;;;;;;;2.88;0.70;;;16.20;99.90;;;;;;5043638;28;20053;-54
2023/07/16 08:56:48;;;;;;;7.35;1.67;;;16.20;99.90;;;;;;5045691;28;20513;-54
2023/07/16 08:59:17;;;;;;;5.47;0.95;;;16.10;99.90;;;;;;5047509;28;20041;-55
2023/07/16 09:01:47;;;;;;;2.58;0.80;;;16.10;99.90;;;;;;5046599;28;20493;-54
2023/07/16 09:04:16;;;;;;;5.03;1.95;;;16.20;99.90;;;;;;5045837;28;20044;-59
2023/07/16 09:06:44;;;;;;;4.80;1.00;;;16.20;99.90;;;;;;5035505;28;20068;-55
2023/07/16 09:09:23;;;;;;;3.13;1.20;;;16.40;99.90;;;;;;5048663;28;20080;-56
2023/07/16 09:11:51;;;;;;;4.68;0.90;;;16.40;99.90;;;;;;5046452;28;20056;-54
2023/07/16 09:14:20;;;;;;;2.95;0.60;;;16.40;99.90;;;;;;5050132;28;20060;-54
2023/07/16 09:16:51;;;;;;;3.38;0.68;;;16.50;99.90;;;;;;5046585;28;20041;-54
2023/07/16 09:19:20;;;;;;;4.05;0.85;;;16.50;99.90;;;;;;5041891;28;20048;-56
2023/07/16 09:21:49;;;;;;;7.03;1.00;;;16.60;99.90;;;;;;5039604;28;20370;-54
2023/07/16 09:24:18;;;;;;;3.72;0.95;;;16.60;99.90;;;;;;5036132;28;20473;-54
2023/07/16 09:26:56;;;;;;;3.95;0.70;;;16.60;99.90;;;;;;5041920;28;20060;-54
2023/07/16 09:29:26;;;;;;;2.80;0.80;;;16.70;99.90;;;;;;5044557;28;20054;-54
2023/07/16 09:32:04;;;;;;;4.93;1.33;;;16.70;99.90;;;;;;5036910;28;20037;-55
2023/07/16 09:34:33;;;;;;;3.47;0.65;;;16.80;99.90;;;;;;5046480;28;20052;-54
2023/07/16 09:37:01;;;;;;;4.05;0.93;;;17.00;99.90;;;;;;5045711;28;20500;-56
2023/07/16 09:39:31;;;;;;;4.90;1.10;;;17.20;99.90;;;;;;5041850;28;20041;-55
2023/07/16 09:41:59;;;;;;;3.50;0.73;;;17.40;99.90;;;;;;5045566;28;20060;-55
2023/07/16 09:44:27;;;;;;;2.67;1.05;;;17.60;99.90;;;;;;5043601;28;20044;-55
2023/07/16 09:46:55;;;;;;;4.32;0.88;;;17.70;99.90;;;;;;5046049;28;20048;-56
2023/07/16 09:49:24;;;;;;;2.63;0.82;;;17.80;99.90;;;;;;5041465;28;20041;-55
2023/07/16 09:51:56;;;;;;;3.22;0.55;;;17.80;99.90;;;;;;5046335;28;20048;-54
2023/07/16 09:54:26;;;;;;;2.83;0.60;;;17.70;99.90;;;;;;5046545;28;20040;-55
2023/07/16 09:57:00;;;;;;;6.50;0.90;;;17.70;99.90;;;;;;5045385;28;20049;-54
2023/07/16 09:59:30;;;;;;;3.97;1.05;;;17.70;99.90;;;;;;5031771;28;20484;-56
2023/07/16 10:01:58;;;;;;;3.20;0.77;;;17.80;99.90;;;;;;5047402;28;20040;-55
2023/07/16 10:04:26;;;;;;;3.70;0.70;;;18.00;99.90;;;;;;5040384;28;20053;-55
2023/07/16 10:07:00;;;;;;;1.10;0.40;;;18.30;99.90;;;;;;5047974;28;20063;-55
2023/07/16 10:09:38;;;;;;;2.28;0.65;;;18.60;99.90;;;;;;5048579;28;20048;-54
2023/07/16 10:12:14;;;;;;;2.50;0.75;;;18.80;99.90;;;;;;5040652;28;20520;-58
2023/07/16 10:15:01;;;;;;;5.00;0.60;;;18.90;99.90;;;;;;5028125;28;20041;-58
2023/07/16 10:17:31;;;;;;;3.80;1.52;;;19.00;99.90;;;;;;5038631;28;20052;-56
2023/07/16 10:20:05;;;;;;;2.88;0.50;;;19.10;99.90;;;;;;5039249;28;21570;-55
2023/07/16 10:22:41;;;;;;;3.03;1.27;;;19.10;99.90;;;;;;5045310;28;20048;-55
2023/07/16 10:25:10;;;;;;;3.42;0.70;;;19.00;99.90;;;;;;5042011;28;20495;-54
2023/07/16 10:27:39;;;;;;;2.37;0.33;;;18.90;99.90;;;;;;5047849;28;20064;-56
2023/07/16 10:30:07;;;;;;;2.53;0.60;;;19.00;99.90;;;;;;5047230;28;20290;-54
2023/07/16 10:32:35;;;;;;;1.33;0.38;;;19.10;99.90;;;;;;5036696;28;20048;-55
2023/07/16 10:35:05;;;;;;;2.03;0.60;;;19.20;99.90;;;;;;5038496;28;20053;-54
2023/07/16 10:37:33;;;;;;;1.73;0.35;;;19.20;99.90;;;;;;5043364;28;20045;-54
2023/07/16 10:40:05;;;;;;;2.28;0.63;;;19.10;99.90;;;;;;5046185;28;20037;-54
2023/07/16 10:42:32;;;;;;;1.35;0.35;;;19.00;99.90;;;;;;5044653;28;20050;-54
2023/07/16 10:45:04;;;;;;;1.45;0.50;;;19.10;99.90;;;;;;5041582;28;20038;-55
2023/07/16 10:47:37;;;;;;;1.65;0.75;;;19.10;99.90;;;;;;5044361;28;20041;-56
2023/07/16 10:50:09;;;;;;;1.80;0.40;;;19.10;99.90;;;;;;5047832;28;20052;-55
2023/07/16 10:52:38;;;;;;;2.85;0.73;;;19.00;99.90;;;;;;5039571;28;20397;-55
2023/07/16 10:55:06;;;;;;;3.13;0.68;;;18.90;99.90;;;;;;5039592;28;20041;-55
2023/07/16 10:57:34;;;;;;;1.35;0.50;;;18.60;99.90;;;;;;5041877;28;20040;-54
2023/07/16 11:00:03;;;;;;;1.30;0.47;;;18.50;99.90;;;;;;5043391;28;20758;-54
2023/07/16 11:02:31;;;;;;;0.30;0.20;;;18.50;99.90;;;;;;5040452;28;20059;-57
2023/07/16 11:05:02;;;;;;;1.65;0.30;;;18.60;99.90;;;;;;5042344;28;20052;-59
2023/07/16 11:07:30;;;;;;;1.17;0.30;;;18.80;99.90;;;;;;5049253;28;20057;-55
2023/07/16 11:09:58;;;;;;;0.30;0.20;;;19.00;99.90;;;;;;5044717;28;20041;-54
2023/07/16 11:12:26;;;;;;;1.23;0.50;;;19.40;99.90;;;;;;5043201;28;20045;-54
2023/07/16 11:14:55;;;;;;;1.23;0.35;;;19.70;99.90;;;;;;5043583;28;20056;-54
2023/07/16 11:17:27;;;;;;;1.47;0.40;;;19.90;99.90;;;;;;5041106;28;20049;-55
2023/07/16 11:19:55;;;;;;;1.08;0.30;;;20.20;99.90;;;;;;5048437;28;20056;-54
2023/07/16 11:22:27;;;;;;;1.42;0.20;;;20.50;99.90;;;;;;5039878;28;20047;-54
2023/07/16 11:24:55;;;;;;;1.33;0.52;;;20.60;99.90;;;;;;5042715;28;20044;-55
2023/07/16 11:27:31;;;;;;;1.75;0.30;;;20.70;99.90;;;;;;5034281;28;20060;-56
2023/07/16 11:30:00;;;;;;;0.30;0.20;;;20.70;99.90;;;;;;5040383;28;20041;-55
2023/07/16 11:32:36;;;;;;;3.25;0.70;;;20.70;99.90;;;;;;5039627;28;20514;-54
2023/07/16 11:35:06;;;;;;;1.27;0.40;;;20.60;99.90;;;;;;5035175;28;20336;-55
2023/07/16 11:37:35;;;;;;;1.43;0.40;;;20.40;99.90;;;;;;5032499;28;20043;-54
2023/07/16 11:40:04;;;;;;;2.25;0.30;;;20.20;99.90;;;;;;5034904;28;20041;-54
2023/07/16 11:42:34;;;;;;;3.07;0.40;;;20.10;99.90;;;;;;5045147;28;20049;-54
2023/07/16 11:45:03;;;;;;;2.33;0.43;;;19.90;99.90;;;;;;5047302;28;20060;-55
2023/07/16 11:47:32;;;;;;;1.98;0.28;;;20.00;99.90;;;;;;5042614;28;20519;-54
2023/07/16 11:50:01;;;;;;;1.50;0.30;;;20.00;99.90;;;;;;5041555;28;20041;-56
2023/07/16 11:52:29;;;;;;;1.50;0.40;;;20.10;99.90;;;;;;5048459;28;20387;-54
2023/07/16 11:55:03;;;;;;;0.20;0.17;;;20.10;99.90;;;;;;5044278;28;20053;-54
2023/07/16 11:57:31;;;;;;;1.77;0.50;;;20.10;99.90;;;;;;5049268;28;20048;-55
2023/07/16 11:59:58;;;;;;;3.05;0.30;;;20.10;99.90;;;;;;5044701;28;20057;-54
2023/07/16 12:02:27;;;;;;;1.13;0.20;;;20.00;99.90;;;;;;5039909;28;20041;-54
2023/07/16 12:04:55;;;;;;;2.75;0.73;;;19.80;99.90;;;;;;5047958;28;20052;-58
2023/07/16 12:07:33;;;;;;;4.00;0.50;;;19.70;99.90;;;;;;5040201;28;20064;-54
2023/07/16 12:10:04;;;;;;;2.87;0.83;;;19.50;99.90;;;;;;5045479;28;20618;-54
2023/07/16 12:12:37;;;;;;;0.85;0.40;;;19.40;99.90;;;;;;5041824;28;20290;-54
2023/07/16 12:15:07;;;;;;;0.85;0.32;;;19.40;99.90;;;;;;5028891;28;20072;-57
2023/07/16 12:17:35;;;;;;;1.92;0.43;;;19.70;99.90;;;;;;5043414;28;20045;-54
2023/07/16 12:20:04;;;;;;;2.42;0.40;;;20.00;99.90;;;;;;5043227;28;20053;-60
2023/07/16 12:22:32;;;;;;;1.55;0.50;;;20.40;99.90;;;;;;5039373;28;20394;-57
2023/07/16 12:25:00;;;;;;;0.57;0.20;;;20.90;99.90;;;;;;5040806;28;20365;-55
2023/07/16 12:27:28;;;;;;;1.30;0.30;;;21.50;99.90;;;;;;5052425;28;20421;-55
2023/07/16 12:29:56;;;;;;;3.53;0.30;;;21.90;99.90;;;;;;5047050;28;20412;-55
2023/07/16 12:32:23;;;;;;;1.63;0.40;;;22.30;99.90;;;;;;5048389;28;20065;-55
2023/07/16 12:34:51;;;;;;;1.95;0.30;;;22.40;99.90;;;;;;5038695;28;20432;-55
2023/07/16 12:37:19;;;;;;;0.50;0.20;;;22.40;99.90;;;;;;5041262;28;20049;-54
2023/07/16 12:39:46;;;;;;;2.22;0.22;;;22.20;99.90;;;;;;5047122;28;20044;-56
2023/07/16 12:42:14;;;;;;;1.10;0.35;;;21.90;99.90;;;;;;5046600;28;20056;-54
2023/07/16 12:44:42;;;;;;;2.22;0.38;;;21.60;99.90;;;;;;5043028;28;20520;-54
2023/07/16 12:47:09;;;;;;;2.17;0.60;;;21.80;99.90;;;;;;5042790;28;20041;-54
2023/07/16 12:49:38;;;;;;;1.63;0.40;;;22.30;99.90;;;;;;5037450;28;20481;-55
2023/07/16 12:52:05;;;;;;;0.93;0.30;;;22.50;99.90;;;;;;5033984;28;20052;-55
2023/07/16 12:54:33;;;;;;;0.57;0.20;;;22.60;99.90;;;;;;5047403;28;20048;-56
2023/07/16 12:57:01;;;;;;;0.50;0.20;;;22.80;99.90;;;;;;5049470;28;20052;-55